CheckWX is a tool to help pilots better visualize weather data.  It is not intended as a substitute for an official pre-flight weather briefing.

06:06:31 UTC

SAZS TAF
San Carlos De Bariloche Airport
San Carlos de Bariloche, Argentina
TAF SAZS 041100Z 0412/0512 VRB05KT CAVOK TX16/0419Z TN00/0511Z BECMG 0414/0417 29015KT

Apr-4@
12:00 UTC

Apr-4 @ 12:00 UTC

Apr-4@
14:00 UTC

Apr-4 @ 14:00 UTC

TAF SAZS 041100Z 0412/0512 VRB05KT CAVOK TX16/0419Z TN00/0511Z

Expired

Wind
  • Variable at 5 KTS
Cloud Levels
  • No significant clouds

Apr-4@
14:00 UTC

Apr-4 @ 14:00 UTC

Apr-5@
12:00 UTC

Apr-5 @ 12:00 UTC

BECMG 0414/0417 29015KT

Becoming

Becoming Conditions expected by Sat, Apr 4, 2020 @ 17:00 UTC

Wind
  • 290° at 15 KTS
Cloud Levels
  • No significant clouds